Time;durP1;ratioP1;P1;durP2;ratioP2;P2;SDS_P1;SDS_P2;PMS_P1;PMS_P2;Temp;Humidity;BMP_temperature;BMP_pressure;BME280_temperature;BME280_humidity;BME280_pressure;Samples;Min_cycle;Max_cycle;Signal;HPM_P1;HPM_P2
2020/12/09 00:00:22;;;;;;;55.22;36.25;;;;;;;-0.45;94.33;99387.50;2088595;28;20040;-74
2020/12/09 00:01:23;;;;;;;57.60;35.70;;;;;;;-0.47;94.35;99390.03;2088655;28;20560;-74
2020/12/09 00:02:23;;;;;;;54.22;34.47;;;;;;;-0.45;94.39;99386.63;2086886;28;20120;-74
2020/12/09 00:03:24;;;;;;;61.13;35.83;;;;;;;-0.47;94.12;99386.66;2079688;28;20056;-75
2020/12/09 00:04:24;;;;;;;57.70;34.67;;;;;;;-0.47;94.50;99389.22;2086999;28;20099;-75
2020/12/09 00:05:24;;;;;;;58.90;37.63;;;;;;;-0.44;94.30;99393.47;2088535;28;20081;-75
2020/12/09 00:06:25;;;;;;;56.70;34.87;;;;;;;-0.45;94.27;99394.31;2088738;28;20031;-75
2020/12/09 00:07:25;;;;;;;55.77;34.50;;;;;;;-0.45;94.22;99395.19;2088716;28;20033;-74
2020/12/09 00:08:25;;;;;;;58.17;36.17;;;;;;;-0.47;94.32;99395.16;2088807;28;20135;-74
2020/12/09 00:09:26;;;;;;;61.60;34.93;;;;;;;-0.45;94.44;99395.19;2088132;28;20029;-74
2020/12/09 00:10:26;;;;;;;61.03;36.87;;;;;;;-0.47;94.47;99394.31;2089248;28;20592;-74
2020/12/09 00:11:27;;;;;;;57.90;35.50;;;;;;;-0.46;94.41;99396.03;2088794;28;20410;-74
2020/12/09 00:12:30;;;;;;;63.80;37.90;;;;;;;-0.46;94.28;99388.34;2088660;28;20494;-74
2020/12/09 00:13:31;;;;;;;61.63;36.58;;;;;;;-0.45;94.31;99397.75;2089033;28;20522;-74
2020/12/09 00:15:36;;;;;;;60.38;37.13;;;;;;;-0.44;94.35;99390.91;2072782;28;20125;-81
2020/12/09 00:16:38;;;;;;;63.53;38.20;;;;;;;-0.44;94.27;99401.16;2087635;28;20024;-81
2020/12/09 00:17:38;;;;;;;54.83;34.08;;;;;;;-0.40;94.44;99396.03;2083084;28;20025;-80
2020/12/09 00:18:39;;;;;;;57.63;35.03;;;;;;;-0.41;94.06;99396.88;2080906;28;20033;-81
2020/12/09 00:19:40;;;;;;;56.88;35.47;;;;;;;-0.41;94.00;99402.00;2081387;28;20066;-83
2020/12/09 00:20:40;;;;;;;55.73;35.20;;;;;;;-0.42;94.15;99400.28;2079855;28;20037;-81
2020/12/09 00:21:40;;;;;;;61.20;37.47;;;;;;;-0.42;93.97;99400.28;2080910;28;20105;-78
2020/12/09 00:22:41;;;;;;;57.43;36.30;;;;;;;-0.44;94.22;99402.00;2079638;28;20048;-78
2020/12/09 00:23:41;;;;;;;58.07;36.13;;;;;;;-0.43;94.09;99398.56;2081476;28;20032;-82
2020/12/09 00:24:41;;;;;;;56.53;35.93;;;;;;;-0.41;94.17;99406.28;2072366;28;20057;-80
2020/12/09 00:25:42;;;;;;;61.57;37.30;;;;;;;-0.41;94.01;99396.88;2072279;28;20030;-78
2020/12/09 00:26:42;;;;;;;57.70;36.97;;;;;;;-0.41;94.09;99402.00;2078562;28;20487;-78
2020/12/09 00:27:42;;;;;;;55.07;34.83;;;;;;;-0.39;94.02;99399.47;2081616;28;20441;-78
2020/12/09 00:28:43;;;;;;;58.70;36.87;;;;;;;-0.40;93.95;99397.75;2081090;28;20033;-79
2020/12/09 00:29:43;;;;;;;54.50;34.93;;;;;;;-0.39;93.67;99402.88;2076565;28;20646;-79
2020/12/09 00:30:45;;;;;;;53.70;33.40;;;;;;;-0.34;93.86;99401.16;2065770;28;20041;-79
2020/12/09 00:31:45;;;;;;;;;;;;;;;-0.36;93.63;99405.44;2075376;28;20049;-78
2020/12/09 00:32:45;;;;;;;52.65;34.35;;;;;;;-0.33;93.60;99395.19;2078888;28;20429;-79
2020/12/09 00:33:47;;;;;;;55.87;34.77;;;;;;;-0.28;93.60;99402.88;2080727;28;20680;-80
2020/12/09 00:34:48;;;;;;;53.35;33.42;;;;;;;-0.28;93.29;99399.47;2072576;28;20021;-79
2020/12/09 00:35:48;;;;;;;54.00;34.37;;;;;;;-0.32;93.47;99404.56;2073020;28;20376;-82
2020/12/09 00:36:48;;;;;;;52.20;34.07;;;;;;;-0.29;93.41;99408.00;2081961;28;20025;-85
2020/12/09 00:37:49;;;;;;;52.90;33.00;;;;;;;-0.28;93.36;99402.03;2082581;28;20074;-85
2020/12/09 00:38:50;;;;;;;51.73;31.90;;;;;;;-0.28;93.35;99410.53;2072809;28;20079;-83
2020/12/09 00:39:51;;;;;;;51.35;32.88;;;;;;;-0.28;93.63;99412.28;2073012;28;20025;-83
2020/12/09 00:40:51;;;;;;;50.07;32.83;;;;;;;-0.26;93.30;99402.88;2081331;28;20018;-83
2020/12/09 00:41:51;;;;;;;56.17;35.57;;;;;;;-0.29;93.18;99397.75;2080845;28;20152;-84
2020/12/09 00:42:52;;;;;;;56.33;34.40;;;;;;;-0.29;93.07;99392.63;2080906;28;20029;-83
2020/12/09 00:43:53;;;;;;;57.87;35.10;;;;;;;-0.24;93.24;99396.03;2081255;28;20057;-84
2020/12/09 00:44:53;;;;;;;53.60;33.05;;;;;;;-0.22;93.09;99396.91;2079153;28;20025;-85
2020/12/09 00:45:53;;;;;;;52.90;32.47;;;;;;;-0.23;93.00;99395.19;2072389;28;20084;-84
2020/12/09 00:46:54;;;;;;;50.63;32.13;;;;;;;-0.21;93.00;99388.38;2073140;28;20029;-81
2020/12/09 00:47:54;;;;;;;48.70;32.20;;;;;;;-0.24;93.21;99393.47;2072647;28;20033;-81
2020/12/09 00:48:55;;;;;;;54.40;33.03;;;;;;;-0.25;93.12;99389.25;2071335;28;20034;-81
2020/12/09 00:50:27;;;;;;;52.72;33.45;;;;;;;-0.25;93.11;99391.78;2075845;28;20045;-82
2020/12/09 00:51:22;;;;;;;51.65;33.00;;;;;;;-0.24;93.54;99394.34;2084218;28;20033;-82
2020/12/09 00:52:22;;;;;;;58.88;32.63;;;;;;;-0.25;93.19;99390.06;2081367;28;20369;-83
2020/12/09 00:53:23;;;;;;;53.53;33.83;;;;;;;-0.26;93.13;99390.94;2081316;28;20032;-81
2020/12/09 00:54:23;;;;;;;48.47;32.93;;;;;;;-0.27;93.05;99394.34;2088760;28;20033;-84
2020/12/09 00:55:23;;;;;;;48.17;32.23;;;;;;;-0.28;93.25;99392.63;2088715;28;20025;-83
2020/12/09 00:56:24;;;;;;;51.67;32.33;;;;;;;-0.26;93.37;99400.31;2080480;28;20125;-84
2020/12/09 00:57:24;;;;;;;50.80;33.83;;;;;;;-0.27;93.24;99403.75;2081428;28;20060;-83
2020/12/09 00:58:24;;;;;;;47.23;32.23;;;;;;;-0.27;93.35;99406.31;2081004;28;20510;-83
2020/12/09 00:59:25;;;;;;;48.90;32.13;;;;;;;-0.26;93.39;99400.31;2081495;28;20041;-84
2020/12/09 01:00:25;;;;;;;50.03;32.33;;;;;;;-0.26;93.44;99402.88;2080823;28;20116;-84
2020/12/09 01:01:25;;;;;;;47.97;32.40;;;;;;;-0.26;93.32;99398.59;2081312;28;20037;-83
2020/12/09 01:02:26;;;;;;;55.73;34.30;;;;;;;-0.27;93.27;99396.91;2080597;28;20079;-82
2020/12/09 01:03:26;;;;;;;50.10;32.33;;;;;;;-0.26;93.36;99400.31;2080351;28;20118;-82
2020/12/09 01:04:26;;;;;;;51.80;34.57;;;;;;;-0.25;93.30;99407.16;2080675;28;20031;-82
2020/12/09 01:05:27;;;;;;;50.83;34.00;;;;;;;-0.26;93.35;99400.31;2080304;28;20442;-81
2020/12/09 01:06:27;;;;;;;53.70;33.83;;;;;;;-0.25;93.33;99407.16;2080404;28;20586;-82
2020/12/09 01:07:27;;;;;;;52.30;34.37;;;;;;;-0.27;93.44;99404.56;2081156;28;20030;-82
2020/12/09 01:08:28;;;;;;;54.43;33.27;;;;;;;-0.25;93.32;99397.75;2080945;28;20041;-82
2020/12/09 01:09:28;;;;;;;48.50;32.27;;;;;;;-0.24;93.27;99393.47;2081033;28;20031;-82
2020/12/09 01:10:29;;;;;;;52.60;33.03;;;;;;;-0.21;93.45;99398.59;2080648;28;20490;-83
2020/12/09 01:11:29;;;;;;;51.80;32.87;;;;;;;-0.22;93.25;99397.78;2080777;28;20459;-82
2020/12/09 01:12:30;;;;;;;50.28;32.50;;;;;;;-0.21;93.28;99393.50;2080465;28;20025;-82
2020/12/09 01:13:31;;;;;;;51.83;33.78;;;;;;;-0.23;93.30;99398.63;2081032;28;20547;-82
2020/12/09 01:14:31;;;;;;;49.78;33.33;;;;;;;-0.23;93.27;99390.94;2080665;28;20079;-82
2020/12/09 01:15:31;;;;;;;55.23;33.50;;;;;;;-0.23;93.15;99396.06;2074907;28;20037;-82
2020/12/09 01:16:32;;;;;;;49.37;32.90;;;;;;;-0.24;93.30;99394.34;2079891;28;20044;-84
2020/12/09 01:17:32;;;;;;;50.40;31.43;;;;;;;-0.21;93.26;99398.59;2081090;28;20104;-85
2020/12/09 01:18:33;;;;;;;51.00;34.50;;;;;;;-0.22;93.35;99391.78;2080267;28;20036;-83
2020/12/09 01:19:33;;;;;;;55.40;34.17;;;;;;;-0.22;93.20;99391.78;2080899;28;20051;-84
2020/12/09 01:20:34;;;;;;;52.45;32.70;;;;;;;-0.22;93.09;99394.34;2076380;28;20029;-83
2020/12/09 01:21:34;;;;;;;49.47;33.13;;;;;;;-0.21;93.10;99398.59;2072957;28;20030;-83
2020/12/09 01:22:34;;;;;;;57.07;35.37;;;;;;;-0.22;93.09;99394.34;2077574;28;20021;-84
2020/12/09 01:23:35;;;;;;;49.47;31.80;;;;;;;-0.22;93.04;99394.34;2072129;28;20468;-81
2020/12/09 01:24:35;;;;;;;52.87;33.37;;;;;;;-0.19;93.19;99396.91;2072109;28;20057;-81
2020/12/09 01:25:36;;;;;;;53.40;34.67;;;;;;;-0.22;92.99;99394.34;2071817;28;20026;-77
2020/12/09 01:26:36;;;;;;;51.57;33.70;;;;;;;-0.19;93.17;99396.91;2078830;28;20037;-78
2020/12/09 01:27:36;;;;;;;51.67;34.03;;;;;;;-0.20;93.16;99396.06;2069487;28;20707;-81
2020/12/09 01:28:38;;;;;;;52.07;33.50;;;;;;;-0.18;93.18;99398.63;2068088;28;20072;-81
2020/12/09 01:29:38;;;;;;;53.53;34.13;;;;;;;-0.18;93.08;99403.75;2075991;28;20032;-80
2020/12/09 01:30:38;;;;;;;53.37;33.00;;;;;;;-0.17;93.26;99408.00;2079561;28;20025;-81
2020/12/09 01:31:39;;;;;;;55.20;34.80;;;;;;;-0.17;93.07;99405.47;2077859;28;20578;-80
2020/12/09 01:32:39;;;;;;;53.00;33.17;;;;;;;-0.17;93.01;99402.91;2078513;28;20029;-80
2020/12/09 01:33:39;;;;;;;52.80;33.73;;;;;;;-0.17;92.90;99405.47;2083687;28;20027;-80
2020/12/09 01:34:40;;;;;;;49.50;32.23;;;;;;;-0.17;93.00;99415.69;2079870;28;20025;-79
2020/12/09 01:35:40;;;;;;;49.60;32.33;;;;;;;-0.16;92.97;99409.72;2076129;28;20028;-79
2020/12/09 01:36:41;;;;;;;47.43;31.93;;;;;;;-0.18;92.93;99408.88;2072016;28;20555;-83
2020/12/09 01:37:41;;;;;;;49.97;32.97;;;;;;;-0.16;92.85;99408.00;2071940;28;20023;-82
2020/12/09 01:38:42;;;;;;;50.03;31.63;;;;;;;-0.16;92.98;99413.13;2072897;28;20018;-83
2020/12/09 01:39:42;;;;;;;51.00;32.93;;;;;;;-0.17;93.00;99410.59;2080043;28;20123;-82
2020/12/09 01:40:42;;;;;;;51.27;32.87;;;;;;;-0.18;92.93;99406.31;2082335;28;20386;-81
2020/12/09 01:41:43;;;;;;;51.33;33.20;;;;;;;-0.17;92.99;99408.00;2081183;28;20155;-84
2020/12/09 01:42:43;;;;;;;49.50;32.60;;;;;;;-0.17;92.96;99415.69;2080729;28;20025;-83
2020/12/09 01:43:47;;;;;;;47.53;32.30;;;;;;;-0.19;93.18;99412.28;2079210;28;20104;-81
2020/12/09 01:44:48;;;;;;;49.38;32.47;;;;;;;-0.19;93.06;99412.28;2064908;28;20025;-80
2020/12/09 01:45:48;;;;;;;51.97;32.37;;;;;;;-0.20;93.17;99415.69;2071684;28;20427;-79
2020/12/09 01:46:49;;;;;;;47.83;31.93;;;;;;;-0.19;93.17;99419.97;2080736;28;20142;-81
2020/12/09 01:47:50;;;;;;;49.10;32.90;;;;;;;-0.22;93.27;99412.25;2072321;28;20018;-80
2020/12/09 01:48:53;;;;;;;47.08;31.20;;;;;;;-0.21;93.27;99417.41;2076741;28;20037;-80
2020/12/09 01:49:53;;;;;;;47.10;30.88;;;;;;;-0.22;93.07;99408.00;2080829;28;20025;-79
2020/12/09 01:50:53;;;;;;;46.53;31.63;;;;;;;-0.21;93.22;99412.28;2072127;28;20028;-80
2020/12/09 01:51:54;;;;;;;47.47;31.27;;;;;;;-0.21;93.28;99412.28;2072052;28;20075;-81
2020/12/09 01:52:55;;;;;;;47.22;31.20;;;;;;;-0.21;93.35;99409.72;2080917;28;20026;-81
2020/12/09 01:53:57;;;;;;;50.03;31.98;;;;;;;-0.20;93.20;99413.13;2080892;28;20056;-81
2020/12/09 01:54:58;;;;;;;52.50;32.83;;;;;;;-0.23;93.22;99411.44;2081071;28;20029;-83
2020/12/09 01:55:58;;;;;;;52.07;34.17;;;;;;;-0.26;93.12;99421.66;2081905;28;20013;-81
2020/12/09 01:57:24;;;;;;;46.83;30.90;;;;;;;-0.23;93.37;99410.56;2072325;28;20503;-81
2020/12/09 01:58:25;;;;;;;47.90;31.30;;;;;;;-0.24;93.15;99425.06;2073427;28;20060;-83
2020/12/09 01:59:25;;;;;;;49.17;32.13;;;;;;;-0.24;93.58;99424.22;2081797;28;20036;-81
2020/12/09 02:00:26;;;;;;;51.43;31.83;;;;;;;-0.24;93.35;99425.06;2074558;28;20034;-82
2020/12/09 02:01:26;;;;;;;49.77;33.10;;;;;;;-0.24;93.48;99426.78;2074541;28;20559;-82
2020/12/09 02:02:27;;;;;;;52.75;34.00;;;;;;;-0.26;93.40;99429.34;2075489;28;20054;-82
2020/12/09 02:03:27;;;;;;;51.83;32.88;;;;;;;-0.24;93.47;99431.88;2077626;28;20552;-81
2020/12/09 02:04:29;;;;;;;49.40;32.80;;;;;;;-0.23;93.36;99425.91;2077096;28;20049;-81
2020/12/09 02:05:33;;;;;;;52.40;33.55;;;;;;;-0.23;93.25;99433.59;2090190;28;20364;-81
2020/12/09 02:06:33;;;;;;;53.25;33.60;;;;;;;-0.23;93.40;99433.59;2075229;28;20026;-82
2020/12/09 02:07:34;;;;;;;51.73;32.97;;;;;;;-0.22;93.36;99436.19;2077499;28;20034;-81
2020/12/09 02:08:34;;;;;;;47.93;31.17;;;;;;;-0.20;93.40;99436.19;2075917;28;20041;-83
2020/12/09 02:09:35;;;;;;;52.80;33.87;;;;;;;-0.19;93.24;99437.88;2072825;28;20033;-82
2020/12/09 02:10:35;;;;;;;52.83;31.70;;;;;;;-0.20;93.27;99434.50;2072709;28;20500;-82
2020/12/09 02:11:35;;;;;;;44.77;30.77;;;;;;;-0.19;93.45;99437.88;2072891;28;20277;-82
2020/12/09 02:12:40;;;;;;;47.20;31.57;;;;;;;-0.18;93.27;99431.91;2072059;28;20026;-83
2020/12/09 02:13:43;;;;;;;48.85;30.25;;;;;;;-0.17;93.34;99442.16;2072941;28;20037;-83
2020/12/09 02:14:43;;;;;;;51.72;32.60;;;;;;;-0.18;93.19;99437.88;2072736;28;20029;-82
2020/12/09 02:15:44;;;;;;;50.27;32.87;;;;;;;-0.16;93.17;99437.91;2071824;28;20021;-83
2020/12/09 02:16:55;;;;;;;48.53;33.43;;;;;;;-0.17;93.14;99436.19;2063898;28;20435;-83
2020/12/09 02:17:55;;;;;;;49.10;32.75;;;;;;;-0.17;93.27;99441.31;2073761;28;20113;-81
2020/12/09 02:18:55;;;;;;;48.33;30.57;;;;;;;-0.15;93.17;99442.19;2080087;28;20504;-86
2020/12/09 02:19:56;;;;;;;51.10;32.70;;;;;;;-0.17;93.13;99443.88;2077383;28;20473;-83
2020/12/09 02:20:56;;;;;;;49.20;32.13;;;;;;;-0.19;93.37;99443.84;2081090;28;20029;-80
2020/12/09 02:22:08;;;;;;;49.73;32.23;;;;;;;-0.19;93.33;99453.25;2081876;28;20035;-80
2020/12/09 02:23:09;;;;;;;50.80;31.83;;;;;;;-0.17;93.45;99446.44;2072974;28;20018;-81
2020/12/09 02:24:09;;;;;;;49.03;33.17;;;;;;;-0.18;93.42;99439.59;2072478;28;20022;-82
2020/12/09 02:25:10;;;;;;;53.30;33.50;;;;;;;-0.20;93.53;99443.88;2072273;28;20423;-82
2020/12/09 02:26:10;;;;;;;52.50;33.17;;;;;;;-0.22;93.85;99445.56;2072546;28;20030;-81
2020/12/09 02:27:11;;;;;;;50.60;33.03;;;;;;;-0.20;93.39;99446.41;2081437;28;20036;-81
2020/12/09 02:28:11;;;;;;;51.60;32.00;;;;;;;-0.21;93.54;99444.72;2081123;28;20021;-81
2020/12/09 02:29:12;;;;;;;50.25;31.52;;;;;;;-0.20;93.70;99444.72;2080927;28;20071;-81
2020/12/09 02:30:12;;;;;;;49.72;31.40;;;;;;;-0.20;93.80;99448.97;2080925;28;20059;-82
2020/12/09 02:31:14;;;;;;;52.37;32.53;;;;;;;-0.20;93.57;99446.41;2081219;28;20034;-81
2020/12/09 02:32:14;;;;;;;54.35;33.60;;;;;;;-0.21;93.67;99449.84;2077342;28;20040;-81
2020/12/09 02:33:15;;;;;;;56.03;33.50;;;;;;;-0.17;93.80;99444.72;2080837;28;20411;-81
2020/12/09 02:34:15;;;;;;;51.67;33.10;;;;;;;-0.20;93.65;99442.16;2081065;28;20026;-82
2020/12/09 02:35:16;;;;;;;50.23;32.50;;;;;;;-0.19;93.83;99446.41;2080700;28;20758;-82
2020/12/09 02:36:16;;;;;;;52.17;34.13;;;;;;;-0.17;93.69;99443.88;2080779;28;20029;-82
2020/12/09 02:37:19;;;;;;;51.47;33.00;;;;;;;-0.16;93.73;99443.03;2081268;28;20048;-81
2020/12/09 02:38:20;;;;;;;53.90;32.35;;;;;;;-0.18;93.68;99445.56;2080727;28;20033;-81
2020/12/09 02:39:31;;;;;;;54.20;33.67;;;;;;;-0.16;93.72;99448.16;2081220;28;20028;-81
2020/12/09 02:40:31;;;;;;;51.88;33.00;;;;;;;-0.18;94.11;99449.84;2071986;28;20507;-81
2020/12/09 02:41:31;;;;;;;56.63;33.93;;;;;;;-0.17;93.71;99452.41;2072380;28;20062;-81
2020/12/09 02:42:32;;;;;;;50.20;31.90;;;;;;;-0.15;93.71;99449.84;2076268;28;20042;-81
2020/12/09 02:43:32;;;;;;;49.57;32.90;;;;;;;-0.14;93.62;99455.81;2072049;28;20067;-82
2020/12/09 02:44:33;;;;;;;51.13;33.70;;;;;;;-0.16;93.93;99458.41;2071756;28;20408;-82
2020/12/09 02:45:33;;;;;;;53.78;33.55;;;;;;;-0.16;93.63;99454.09;2072945;28;20037;-81
2020/12/09 02:46:34;;;;;;;52.37;33.53;;;;;;;-0.11;93.91;99454.13;2072453;28;20682;-82
2020/12/09 02:47:34;;;;;;;55.27;34.70;;;;;;;-0.11;94.01;99464.38;2072489;28;20423;-82
2020/12/09 02:48:34;;;;;;;50.33;31.27;;;;;;;-0.08;93.67;99461.81;2077709;28;20022;-82
2020/12/09 02:49:35;;;;;;;52.27;33.10;;;;;;;-0.05;93.83;99460.97;2082131;28;20484;-82
2020/12/09 02:50:35;;;;;;;63.43;34.03;;;;;;;-0.07;93.75;99460.97;2082243;28;20035;-81
2020/12/09 02:51:35;;;;;;;49.80;32.73;;;;;;;-0.06;93.74;99467.81;2082293;28;20024;-81
2020/12/09 02:52:36;;;;;;;53.23;34.17;;;;;;;-0.10;93.89;99467.78;2081806;28;20025;-82
2020/12/09 02:53:36;;;;;;;55.37;33.13;;;;;;;-0.12;94.06;99467.78;2082286;28;20035;-82
2020/12/09 02:54:36;;;;;;;54.17;35.77;;;;;;;-0.16;94.06;99469.47;2082020;28;20048;-81
2020/12/09 02:55:37;;;;;;;53.77;34.07;;;;;;;-0.16;94.15;99468.63;2082052;28;20387;-81
2020/12/09 02:56:37;;;;;;;51.87;32.73;;;;;;;-0.15;94.13;99465.22;2082024;28;20082;-82
2020/12/09 02:57:38;;;;;;;49.40;32.47;;;;;;;-0.16;94.24;99466.06;2082225;28;20088;-82
2020/12/09 02:58:38;;;;;;;54.00;34.63;;;;;;;-0.16;94.22;99463.50;2082058;28;20782;-82
2020/12/09 02:59:38;;;;;;;56.63;35.60;;;;;;;-0.17;94.36;99466.94;2082255;28;20383;-82
2020/12/09 03:00:38;;;;;;;52.60;33.97;;;;;;;-0.18;94.44;99465.22;2072908;28;20040;-82
2020/12/09 03:01:39;;;;;;;52.80;34.83;;;;;;;-0.19;94.41;99473.75;2073423;28;20092;-82
2020/12/09 03:02:40;;;;;;;54.67;35.23;;;;;;;-0.19;94.50;99474.59;2073525;28;20029;-81
2020/12/09 03:03:40;;;;;;;52.97;34.20;;;;;;;-0.15;94.45;99472.91;2073972;28;20168;-81
2020/12/09 03:04:40;;;;;;;55.97;35.20;;;;;;;-0.16;94.26;99473.75;2073796;28;20036;-81
2020/12/09 03:05:41;;;;;;;50.27;32.57;;;;;;;-0.17;94.58;99484.84;2073094;28;20526;-81
2020/12/09 03:06:42;;;;;;;55.28;34.65;;;;;;;-0.16;94.40;99481.44;2073324;28;20025;-81
2020/12/09 03:07:42;;;;;;;53.00;33.25;;;;;;;-0.12;94.31;99484.88;2074018;28;20058;-82
2020/12/09 03:08:43;;;;;;;55.57;35.30;;;;;;;-0.10;94.42;99483.16;2073892;28;20021;-82
2020/12/09 03:09:44;;;;;;;60.33;35.90;;;;;;;-0.14;94.21;99478.88;2081437;28;20029;-82
2020/12/09 03:10:44;;;;;;;56.43;34.70;;;;;;;-0.15;94.42;99485.72;2081610;28;20041;-82
2020/12/09 03:11:44;;;;;;;51.60;33.70;;;;;;;-0.14;94.36;99481.44;2074611;28;20080;-81
2020/12/09 03:12:44;;;;;;;51.10;32.70;;;;;;;-0.13;94.64;99481.44;2074207;28;20021;-81
2020/12/09 03:13:45;;;;;;;53.40;33.93;;;;;;;-0.13;94.54;99478.03;2065578;28;20510;-81
2020/12/09 03:14:45;;;;;;;52.00;31.13;;;;;;;-0.11;94.71;99476.34;2066173;28;20081;-82
2020/12/09 03:15:45;;;;;;;57.93;33.47;;;;;;;-0.11;94.41;99482.28;2082051;28;20396;-81
2020/12/09 03:16:46;;;;;;;51.40;33.37;;;;;;;-0.09;94.53;99488.28;2082543;28;20503;-82
2020/12/09 03:17:46;;;;;;;54.57;33.47;;;;;;;-0.06;94.60;99485.72;2082309;28;20036;-82
2020/12/09 03:18:46;;;;;;;54.03;33.50;;;;;;;-0.06;94.32;99493.41;2082461;28;20029;-82
2020/12/09 03:19:47;;;;;;;54.03;34.33;;;;;;;-0.05;94.27;99494.25;2081892;28;20556;-82
2020/12/09 03:20:47;;;;;;;55.20;33.77;;;;;;;-0.02;94.31;99499.41;2081894;28;20017;-82
2020/12/09 03:21:47;;;;;;;56.00;35.33;;;;;;;0.01;93.95;99501.94;2081724;28;20423;-82
2020/12/09 03:22:48;;;;;;;50.43;33.73;;;;;;;0.00;94.03;99495.13;2081304;28;20036;-82
2020/12/09 03:23:49;;;;;;;51.30;32.92;;;;;;;0.00;93.99;99500.25;2081665;28;20079;-82
2020/12/09 03:24:49;;;;;;;55.03;33.47;;;;;;;0.02;94.12;99495.13;2081920;28;20111;-82
2020/12/09 03:25:49;;;;;;;51.30;32.07;;;;;;;0.01;94.10;99490.84;2081685;28;20024;-82
2020/12/09 03:26:49;;;;;;;56.40;34.03;;;;;;;0.01;94.03;99496.81;2081851;28;20036;-82
2020/12/09 03:27:50;;;;;;;52.50;32.57;;;;;;;0.01;94.01;99491.69;2081889;28;20361;-82
2020/12/09 03:28:50;;;;;;;52.83;34.07;;;;;;;0.02;94.01;99490.00;2081254;28;20026;-82
2020/12/09 03:29:50;;;;;;;53.03;32.43;;;;;;;0.03;94.04;99491.72;2081293;28;20097;-81
2020/12/09 03:30:51;;;;;;;61.70;35.27;;;;;;;0.03;93.95;99494.28;2081677;28;20462;-82
2020/12/09 03:31:51;;;;;;;48.43;31.33;;;;;;;0.04;94.28;99490.88;2081729;28;20163;-82
2020/12/09 03:32:51;;;;;;;51.03;31.77;;;;;;;0.05;93.83;99492.59;2081531;28;20109;-82
2020/12/09 03:33:51;;;;;;;51.23;32.87;;;;;;;0.07;94.09;99494.28;2079199;28;20029;-82
2020/12/09 03:34:52;;;;;;;54.70;34.77;;;;;;;0.08;93.90;99490.00;2081096;28;20428;-82
2020/12/09 03:35:52;;;;;;;51.40;32.93;;;;;;;0.08;93.95;99490.88;2081713;28;20048;-82
2020/12/09 03:36:52;;;;;;;52.53;33.07;;;;;;;0.10;93.98;99496.00;2081751;28;20503;-82
2020/12/09 03:37:53;;;;;;;51.47;31.90;;;;;;;0.11;94.37;99497.69;2081785;28;20018;-82
2020/12/09 03:38:53;;;;;;;53.57;34.30;;;;;;;0.12;93.94;99501.97;2081729;28;20479;-82
2020/12/09 03:39:53;;;;;;;51.07;32.40;;;;;;;0.13;93.83;99501.97;2081799;28;20076;-82
2020/12/09 03:40:53;;;;;;;53.50;32.67;;;;;;;0.15;93.82;99499.41;2081698;28;20048;-82
2020/12/09 03:41:54;;;;;;;55.40;33.53;;;;;;;0.14;93.84;99505.41;2081583;28;20021;-81
2020/12/09 03:42:54;;;;;;;53.53;32.43;;;;;;;0.17;93.97;99502.81;2080882;28;20032;-82
2020/12/09 03:43:54;;;;;;;51.30;33.17;;;;;;;0.21;93.87;99503.69;2081354;28;20476;-81
2020/12/09 03:44:55;;;;;;;51.27;33.30;;;;;;;0.18;93.75;99506.25;2080488;28;20017;-81
2020/12/09 03:45:55;;;;;;;53.57;33.20;;;;;;;0.15;93.80;99507.09;2080623;28;20427;-81
2020/12/09 03:46:56;;;;;;;49.30;33.07;;;;;;;0.17;93.93;99510.50;2081693;28;20099;-82
2020/12/09 03:47:56;;;;;;;;;;;;;;;0.17;93.83;99505.38;2082145;28;20409;-82
2020/12/09 03:48:57;;;;;;;52.13;31.83;;;;;;;0.18;93.77;99512.22;2081527;28;19916;-81
2020/12/09 03:49:57;;;;;;;51.70;31.63;;;;;;;0.19;93.72;99513.09;2072766;28;20073;-82
2020/12/09 03:50:57;;;;;;;54.67;32.83;;;;;;;0.20;93.78;99517.34;2072804;28;20049;-82
2020/12/09 03:51:58;;;;;;;52.07;32.43;;;;;;;0.24;93.82;99522.50;2081620;28;20048;-82
2020/12/09 03:52:58;;;;;;;50.93;30.87;;;;;;;0.23;93.89;99522.47;2081324;28;20064;-82
2020/12/09 03:53:59;;;;;;;49.30;31.27;;;;;;;0.26;93.51;99530.19;2081617;28;20075;-82
2020/12/09 03:54:59;;;;;;;48.47;33.00;;;;;;;0.27;93.60;99526.75;2081260;28;20276;-82
2020/12/09 03:55:59;;;;;;;49.67;32.27;;;;;;;0.26;93.45;99527.63;2081700;28;20094;-82
2020/12/09 03:56:59;;;;;;;57.77;34.40;;;;;;;0.26;93.31;99531.03;2081638;28;20068;-82
2020/12/09 03:58:00;;;;;;;52.90;32.87;;;;;;;0.26;93.38;99533.59;2072896;28;20017;-81
2020/12/09 03:59:01;;;;;;;47.80;31.25;;;;;;;0.30;93.13;99529.31;2072740;28;20048;-82
2020/12/09 04:00:01;;;;;;;48.50;30.20;;;;;;;0.28;93.26;99525.91;2080713;28;20537;-82
2020/12/09 04:01:01;;;;;;;47.93;30.80;;;;;;;0.30;93.04;99532.75;2079880;28;20033;-82
2020/12/09 04:02:02;;;;;;;51.37;31.60;;;;;;;0.29;93.05;99523.34;2081655;28;20029;-82
2020/12/09 04:03:02;;;;;;;49.50;32.33;;;;;;;0.29;92.99;99525.06;2081087;28;20033;-81
2020/12/09 04:04:02;;;;;;;51.20;32.27;;;;;;;0.29;93.12;99525.06;2081384;28;20112;-81
2020/12/09 04:05:03;;;;;;;51.60;31.73;;;;;;;0.31;93.15;99525.91;2081234;28;20021;-82
2020/12/09 04:06:04;;;;;;;52.58;32.90;;;;;;;0.30;93.30;99526.75;2081592;28;20071;-82
2020/12/09 04:07:04;;;;;;;48.13;31.83;;;;;;;0.32;93.53;99526.78;2072532;28;20103;-82
2020/12/09 04:08:04;;;;;;;49.23;32.63;;;;;;;0.31;93.01;99528.47;2072774;28;20018;-82
2020/12/09 04:09:05;;;;;;;53.30;33.50;;;;;;;0.31;93.05;99531.03;2081435;28;20057;-82
2020/12/09 04:10:06;;;;;;;50.60;33.30;;;;;;;0.34;93.09;99535.31;2081440;28;20503;-82
2020/12/09 04:11:06;;;;;;;49.83;31.38;;;;;;;0.32;93.19;99526.78;2081513;28;20029;-82
2020/12/09 04:12:06;;;;;;;50.53;32.57;;;;;;;0.34;93.18;99532.75;2081420;28;20163;-82
2020/12/09 04:13:07;;;;;;;49.43;32.60;;;;;;;0.35;93.22;99532.75;2081167;28;20376;-82
2020/12/09 04:14:07;;;;;;;50.83;31.63;;;;;;;0.36;93.07;99531.91;2081555;28;20036;-82
2020/12/09 04:15:08;;;;;;;49.43;30.83;;;;;;;0.37;93.11;99531.03;2081197;28;20141;-82
2020/12/09 04:16:08;;;;;;;47.72;31.98;;;;;;;0.38;93.26;99531.88;2080640;28;20112;-82
2020/12/09 04:17:08;;;;;;;46.87;30.27;;;;;;;0.40;93.14;99533.59;2081127;28;20059;-81
2020/12/09 04:18:09;;;;;;;45.47;30.23;;;;;;;0.39;93.07;99539.56;2081822;28;20518;-82
2020/12/09 04:19:09;;;;;;;50.27;31.90;;;;;;;0.38;93.32;99537.00;2081811;28;20112;-82
2020/12/09 04:20:12;;;;;;;46.60;30.37;;;;;;;0.39;93.13;99537.00;2081889;28;20029;-82
2020/12/09 04:21:12;;;;;;;49.65;32.50;;;;;;;0.42;93.20;99538.75;2081496;28;20159;-83
2020/12/09 04:22:13;;;;;;;52.20;32.17;;;;;;;0.40;93.14;99541.28;2081022;28;20380;-82
2020/12/09 04:23:14;;;;;;;51.97;32.42;;;;;;;0.41;93.23;99543.00;2081394;28;20029;-82
2020/12/09 04:24:14;;;;;;;47.87;30.43;;;;;;;0.44;93.09;99542.16;2080611;28;20025;-82
2020/12/09 04:25:14;;;;;;;48.20;30.93;;;;;;;0.44;92.93;99540.44;2080673;28;20029;-82
2020/12/09 04:26:14;;;;;;;46.90;30.60;;;;;;;0.46;92.79;99545.56;2081483;28;20025;-82
2020/12/09 04:27:15;;;;;;;47.77;31.27;;;;;;;0.48;92.98;99548.97;2081094;28;20028;-82
2020/12/09 04:28:15;;;;;;;44.47;29.27;;;;;;;0.48;92.95;99545.59;2081319;28;20029;-82
2020/12/09 04:29:16;;;;;;;47.53;30.03;;;;;;;0.50;92.95;99543.84;2081455;28;20036;-82
2020/12/09 04:30:17;;;;;;;48.83;30.33;;;;;;;0.49;92.86;99543.00;2081377;28;20048;-82
2020/12/09 04:31:17;;;;;;;46.17;28.77;;;;;;;0.51;92.88;99536.19;2080457;28;20037;-82
2020/12/09 04:32:17;;;;;;;50.43;31.03;;;;;;;0.51;92.81;99541.31;2080445;28;20018;-82
2020/12/09 04:33:26;;;;;;;43.03;28.73;;;;;;;0.52;92.77;99537.88;2072521;28;20022;-82
2020/12/09 04:34:26;;;;;;;45.90;30.45;;;;;;;0.54;92.80;99537.88;2071907;28;20117;-82
2020/12/09 04:35:27;;;;;;;47.72;30.42;;;;;;;0.55;92.61;99544.72;2080386;28;20021;-82
2020/12/09 04:36:28;;;;;;;46.10;29.57;;;;;;;0.54;92.66;99537.88;2080692;28;20535;-82
2020/12/09 04:37:28;;;;;;;46.28;30.10;;;;;;;0.56;92.64;99533.63;2080682;28;20606;-82
2020/12/09 04:38:29;;;;;;;46.73;30.37;;;;;;;0.57;92.96;99528.47;2089061;28;20098;-82
2020/12/09 04:39:29;;;;;;;50.60;31.13;;;;;;;0.58;92.76;99534.47;2072585;28;20026;-82
2020/12/09 04:40:29;;;;;;;45.23;30.10;;;;;;;0.58;92.54;99530.19;2072390;28;20038;-82
2020/12/09 04:41:30;;;;;;;48.07;30.40;;;;;;;0.59;92.49;99528.47;2072389;28;20102;-82